createdAt,value
2022-10-02T03:01:58.489Z,13.30
2022-10-02T03:04:25.752Z,13.30
2022-10-02T03:06:58.774Z,13.30
2022-10-02T03:09:28.746Z,13.30
2022-10-02T03:12:14.197Z,13.30
2022-10-02T03:15:06.617Z,13.30
2022-10-02T03:18:01.118Z,13.30
2022-10-02T03:20:49.801Z,13.30
2022-10-02T03:23:38.954Z,13.40
2022-10-02T03:26:21.211Z,13.40
2022-10-02T03:28:58.950Z,13.30
2022-10-02T03:31:30.035Z,13.40
2022-10-02T03:33:58.453Z,13.40
2022-10-02T03:36:26.091Z,13.40
2022-10-02T03:39:23.184Z,13.40
2022-10-02T03:41:44.008Z,13.30
2022-10-02T03:44:11.132Z,13.30
2022-10-02T03:46:38.799Z,13.30
2022-10-02T03:49:06.269Z,13.30
2022-10-02T03:51:33.422Z,13.30
2022-10-02T03:54:00.610Z,13.30
2022-10-02T03:56:38.889Z,13.30
2022-10-02T03:59:13.948Z,13.30
2022-10-02T04:01:49.084Z,13.30
2022-10-02T04:04:26.875Z,13.30
2022-10-02T04:07:02.787Z,13.20
2022-10-02T04:09:57.281Z,13.10
2022-10-02T04:12:30.986Z,13.10
2022-10-02T04:15:28.237Z,13.00
2022-10-02T04:18:10.283Z,13.00
2022-10-02T04:20:53.111Z,13.00
2022-10-02T04:23:39.680Z,12.90
2022-10-02T04:26:23.325Z,12.90
2022-10-02T04:28:59.280Z,12.90
2022-10-02T04:31:28.094Z,12.90
2022-10-02T04:34:03.148Z,12.90
2022-10-02T04:36:48.865Z,13.00
2022-10-02T04:39:29.335Z,13.00
2022-10-02T04:42:16.276Z,13.00
2022-10-02T04:45:04.472Z,13.00
2022-10-02T04:47:47.025Z,13.00
2022-10-02T04:50:24.222Z,13.00
2022-10-02T04:53:19.624Z,12.90
2022-10-02T04:56:17.535Z,12.90
2022-10-02T04:59:11.057Z,13.00
2022-10-02T05:02:04.223Z,13.00
2022-10-02T05:04:47.684Z,13.00
2022-10-02T05:07:33.599Z,12.90
2022-10-02T05:10:21.540Z,12.90
2022-10-02T05:13:17.051Z,13.00
2022-10-02T05:16:02.103Z,13.00
2022-10-02T05:19:05.664Z,13.10
2022-10-02T05:21:54.244Z,13.20
2022-10-02T05:24:39.780Z,13.20
2022-10-02T05:27:11.483Z,13.20
2022-10-02T05:30:00.296Z,13.20
2022-10-02T05:33:10.723Z,13.20
2022-10-02T05:35:50.126Z,13.30
2022-10-02T05:38:47.866Z,13.30
2022-10-02T05:41:33.441Z,13.30
2022-10-02T05:44:07.643Z,13.30
2022-10-02T05:46:45.694Z,13.30
2022-10-02T05:49:25.100Z,13.30
2022-10-02T05:52:04.729Z,13.30
2022-10-02T05:54:52.462Z,13.40
2022-10-02T05:57:34.723Z,13.30
2022-10-02T06:00:24.095Z,13.40
2022-10-02T06:03:21.720Z,13.50
2022-10-02T06:05:58.765Z,13.50
2022-10-02T06:08:36.971Z,13.50
2022-10-02T06:11:28.601Z,13.50
2022-10-02T06:14:35.962Z,13.50
2022-10-02T06:17:13.398Z,13.50
2022-10-02T06:20:03.859Z,13.50
2022-10-02T06:22:41.634Z,13.60
2022-10-02T06:25:22.120Z,13.60
2022-10-02T06:27:54.149Z,13.60
2022-10-02T06:30:22.137Z,13.60
2022-10-02T06:32:59.296Z,13.60
2022-10-02T06:35:38.463Z,13.60
2022-10-02T06:38:19.997Z,13.60
2022-10-02T06:40:51.433Z,13.50
2022-10-02T06:43:24.685Z,13.50
2022-10-02T06:46:09.863Z,13.50
2022-10-02T06:48:58.611Z,13.60
2022-10-02T06:51:57.093Z,13.50
2022-10-02T06:54:59.830Z,13.60
2022-10-02T06:57:52.888Z,13.80
2022-10-02T07:00:21.873Z,13.90
2022-10-02T07:03:14.103Z,13.90
2022-10-02T07:06:09.658Z,13.90
2022-10-02T07:08:37.908Z,13.90
2022-10-02T07:11:25.740Z,13.90
2022-10-02T07:14:10.356Z,14.00
2022-10-02T07:17:02.625Z,14.00
2022-10-02T07:19:38.411Z,14.00
2022-10-02T07:22:43.265Z,14.10
2022-10-02T07:25:31.149Z,14.10
2022-10-02T07:28:24.906Z,14.10
2022-10-02T07:31:18.280Z,14.10
2022-10-02T07:34:13.417Z,14.20
2022-10-02T07:37:07.641Z,14.20
2022-10-02T07:40:02.706Z,14.20
2022-10-02T07:42:42.855Z,14.40
2022-10-02T07:45:27.925Z,14.70
2022-10-02T07:48:16.812Z,14.80
2022-10-02T07:51:40.393Z,15.10
2022-10-02T07:54:25.441Z,15.10
2022-10-02T07:56:54.032Z,15.00
2022-10-02T07:59:21.653Z,15.00
2022-10-02T08:01:50.677Z,15.20
2022-10-02T08:04:19.181Z,15.20
2022-10-02T08:06:48.288Z,15.30
2022-10-02T08:09:26.744Z,15.50
2022-10-02T08:12:03.105Z,15.30
2022-10-02T08:14:42.204Z,15.10
2022-10-02T08:17:38.073Z,15.20
2022-10-02T08:20:15.793Z,15.20
2022-10-02T08:22:58.216Z,15.30
2022-10-02T08:25:36.783Z,15.40
2022-10-02T08:28:05.981Z,15.60
2022-10-02T08:30:33.298Z,15.70
2022-10-02T08:33:00.517Z,15.80
2022-10-02T08:35:45.359Z,15.80
2022-10-02T08:38:28.147Z,16.00
2022-10-02T08:41:32.704Z,16.20
2022-10-02T08:44:22.856Z,16.30
2022-10-02T08:47:23.129Z,16.40
2022-10-02T08:50:39.016Z,16.50
2022-10-02T08:53:22.009Z,16.70
2022-10-02T08:56:10.757Z,16.70
2022-10-02T08:59:19.102Z,16.80
2022-10-02T09:02:13.445Z,16.70
2022-10-02T09:05:07.694Z,17.00
2022-10-02T09:07:59.347Z,17.00
2022-10-02T09:11:03.947Z,17.00
2022-10-02T09:13:49.879Z,17.10
2022-10-02T09:16:54.473Z,17.00
2022-10-02T09:19:40.359Z,17.10
2022-10-02T09:22:25.949Z,17.20
2022-10-02T09:25:07.158Z,17.20
2022-10-02T09:27:52.012Z,17.20
2022-10-02T09:30:22.155Z,17.20
2022-10-02T09:33:18.361Z,17.30
2022-10-02T09:36:07.432Z,17.40
2022-10-02T09:39:24.993Z,17.20
2022-10-02T09:42:38.158Z,17.20
2022-10-02T09:45:26.051Z,17.00
2022-10-02T09:48:05.183Z,17.30
2022-10-02T09:51:26.672Z,17.30
2022-10-02T09:54:11.309Z,17.30
2022-10-02T09:57:11.616Z,17.40
2022-10-02T10:00:03.360Z,17.70
2022-10-02T10:02:48.554Z,17.60
2022-10-02T10:05:18.754Z,17.60
2022-10-02T10:08:24.045Z,17.50
2022-10-02T10:11:00.604Z,17.60
2022-10-02T10:13:59.727Z,17.60
2022-10-02T10:16:38.581Z,17.40
2022-10-02T10:19:12.160Z,17.00
2022-10-02T10:21:50.985Z,17.10
2022-10-02T10:24:32.943Z,17.20
2022-10-02T10:27:13.295Z,17.20
2022-10-02T10:29:58.754Z,17.40
2022-10-02T10:33:00.248Z,17.30
2022-10-02T10:35:54.246Z,17.50
2022-10-02T10:38:33.142Z,17.30
2022-10-02T10:41:26.364Z,17.30
2022-10-02T10:43:56.277Z,17.10
2022-10-02T10:46:56.353Z,17.10
2022-10-02T10:49:30.341Z,17.00
2022-10-02T10:52:13.948Z,17.10
2022-10-02T10:54:54.775Z,17.20
2022-10-02T10:57:51.944Z,17.40
2022-10-02T11:00:26.434Z,17.40
2022-10-02T11:02:59.535Z,17.40
2022-10-02T11:06:03.913Z,17.50
2022-10-02T11:08:54.130Z,17.40
2022-10-02T11:12:04.226Z,17.40
2022-10-02T11:14:47.074Z,17.30
2022-10-02T11:17:54.021Z,17.00
2022-10-02T11:20:41.368Z,17.00
2022-10-02T11:23:30.048Z,17.10
2022-10-02T11:26:15.121Z,17.60
2022-10-02T11:29:16.875Z,17.80
2022-10-02T11:32:02.007Z,17.80
2022-10-02T11:34:38.093Z,17.70
2022-10-02T11:37:38.730Z,17.50
2022-10-02T11:40:27.964Z,17.50
2022-10-02T11:43:41.749Z,17.40
2022-10-02T11:46:36.984Z,17.40
2022-10-02T11:49:52.458Z,17.40
2022-10-02T11:52:22.590Z,17.50
2022-10-02T11:55:22.183Z,17.70
2022-10-02T11:58:19.983Z,18.00
2022-10-02T12:00:59.882Z,18.00
2022-10-02T12:03:49.400Z,17.90
2022-10-02T12:06:53.985Z,17.70
2022-10-02T12:09:58.456Z,17.60
2022-10-02T12:12:51.483Z,17.50
2022-10-02T12:15:56.998Z,17.30
2022-10-02T12:19:00.602Z,16.90
2022-10-02T12:22:04.651Z,16.80
2022-10-02T12:25:11.180Z,16.80
2022-10-02T12:27:59.403Z,17.00
2022-10-02T12:30:32.917Z,17.00
2022-10-02T12:33:25.286Z,17.20
2022-10-02T12:35:58.310Z,17.10
2022-10-02T12:38:44.388Z,17.10
2022-10-02T12:41:20.362Z,17.20
2022-10-02T12:44:06.178Z,17.40
2022-10-02T12:47:01.180Z,17.20
2022-10-02T12:49:47.309Z,16.90
2022-10-02T12:52:35.881Z,16.90
2022-10-02T12:55:33.919Z,16.80
2022-10-02T12:58:17.165Z,16.90
2022-10-02T13:01:11.558Z,17.00
2022-10-02T13:03:53.668Z,17.40
2022-10-02T13:06:51.470Z,17.50
2022-10-02T13:09:18.595Z,17.60
2022-10-02T13:12:19.191Z,17.60
2022-10-02T13:15:08.073Z,17.90
2022-10-02T13:18:09.044Z,17.90
2022-10-02T13:20:39.036Z,18.00
2022-10-02T13:23:26.735Z,18.20
2022-10-02T13:25:59.646Z,18.20
2022-10-02T13:29:06.989Z,18.00
2022-10-02T13:31:55.330Z,17.80
2022-10-02T13:34:59.386Z,17.80
2022-10-02T13:37:52.164Z,18.20
2022-10-02T13:40:53.776Z,18.20
2022-10-02T13:43:40.878Z,18.20
2022-10-02T13:46:21.185Z,18.30
2022-10-02T13:48:59.898Z,18.40
2022-10-02T13:51:46.081Z,18.60
2022-10-02T13:54:31.100Z,18.70
2022-10-02T13:57:39.793Z,18.80
2022-10-02T14:00:40.490Z,18.90
2022-10-02T14:03:23.241Z,19.00
2022-10-02T14:06:17.591Z,18.90
2022-10-02T14:09:12.412Z,18.50
2022-10-02T14:12:00.393Z,18.40
2022-10-02T14:14:42.150Z,18.40
2022-10-02T14:17:21.370Z,18.60
2022-10-02T14:20:35.593Z,18.50
2022-10-02T14:23:33.928Z,18.40
2022-10-02T14:26:06.531Z,18.50
2022-10-02T14:28:47.452Z,18.60
2022-10-02T14:31:44.892Z,18.70
2022-10-02T14:34:33.074Z,18.50
2022-10-02T14:37:30.933Z,18.70
2022-10-02T14:40:01.861Z,18.80
2022-10-02T14:43:11.009Z,18.90
2022-10-02T14:45:54.744Z,18.80
2022-10-02T14:48:43.251Z,18.40
2022-10-02T14:51:34.379Z,18.30
2022-10-02T14:54:21.665Z,18.10
2022-10-02T14:57:07.741Z,18.10
2022-10-02T14:59:54.963Z,18.00
2022-10-02T15:02:39.897Z,17.90
2022-10-02T15:05:25.682Z,18.00
2022-10-02T15:07:56.431Z,17.90
2022-10-02T15:10:27.629Z,17.80
2022-10-02T15:13:10.293Z,17.70
2022-10-02T15:15:43.750Z,17.70
2022-10-02T15:18:32.487Z,17.50
2022-10-02T15:21:18.186Z,17.50
2022-10-02T15:23:51.531Z,17.50
2022-10-02T15:26:42.790Z,17.50
2022-10-02T15:29:22.670Z,17.50
2022-10-02T15:32:23.848Z,17.50
2022-10-02T15:34:57.329Z,17.50
2022-10-02T15:37:35.865Z,17.50
2022-10-02T15:40:28.756Z,17.50
2022-10-02T15:42:58.906Z,17.50
2022-10-02T15:46:05.208Z,17.50
2022-10-02T15:49:09.202Z,17.40
2022-10-02T15:51:45.478Z,17.40
2022-10-02T15:54:18.393Z,17.40
2022-10-02T15:57:07.386Z,17.50
2022-10-02T15:59:34.496Z,17.50
2022-10-02T16:02:13.831Z,17.50
2022-10-02T16:04:57.538Z,17.40
2022-10-02T16:07:35.494Z,17.30
2022-10-02T16:10:13.081Z,17.30
2022-10-02T16:13:09.522Z,17.30
2022-10-02T16:15:53.839Z,17.20
2022-10-02T16:18:49.210Z,16.90
2022-10-02T16:21:51.423Z,16.90
2022-10-02T16:24:37.366Z,16.80
2022-10-02T16:27:23.070Z,16.70
2022-10-02T16:30:02.788Z,16.70
2022-10-02T16:33:00.549Z,16.70
2022-10-02T16:36:05.087Z,16.70
2022-10-02T16:38:47.257Z,16.60
2022-10-02T16:41:38.832Z,16.60
2022-10-02T16:44:24.037Z,16.60
2022-10-02T16:47:07.199Z,16.50
2022-10-02T16:50:04.839Z,16.50
2022-10-02T16:52:59.478Z,16.50
2022-10-02T16:55:43.471Z,16.50
2022-10-02T16:58:39.274Z,16.20
2022-10-02T17:02:16.511Z,16.10
2022-10-02T17:04:43.591Z,16.00
2022-10-02T17:07:25.716Z,15.90
2022-10-02T17:10:02.368Z,15.90
2022-10-02T17:12:41.469Z,15.80
2022-10-02T17:15:46.264Z,15.80
2022-10-02T17:18:19.062Z,15.70
2022-10-02T17:20:56.558Z,15.70
2022-10-02T17:23:45.390Z,15.70
2022-10-02T17:26:50.021Z,15.70
2022-10-02T17:29:22.738Z,15.70
2022-10-02T17:31:56.059Z,15.70
2022-10-02T17:34:27.255Z,15.70
2022-10-02T17:37:02.344Z,15.50
2022-10-02T17:39:41.156Z,15.50
2022-10-02T17:42:43.225Z,15.50
2022-10-02T17:45:36.618Z,15.50
2022-10-02T17:48:14.283Z,15.50
2022-10-02T17:51:15.018Z,15.50
2022-10-02T17:54:18.856Z,15.50
2022-10-02T17:57:06.285Z,15.40
2022-10-02T17:59:51.897Z,15.20
2022-10-02T18:02:43.673Z,15.10
2022-10-02T18:05:46.226Z,15.00
2022-10-02T18:08:42.545Z,14.90
2022-10-02T18:11:27.856Z,14.90
2022-10-02T18:14:06.270Z,14.90
2022-10-02T18:17:01.090Z,14.90
2022-10-02T18:19:50.924Z,14.90
2022-10-02T18:22:36.452Z,14.90
2022-10-02T18:25:31.364Z,14.90
2022-10-02T18:28:18.703Z,14.90
2022-10-02T18:30:54.024Z,15.00
2022-10-02T18:33:34.737Z,15.00
2022-10-02T18:36:20.616Z,15.00
2022-10-02T18:38:58.743Z,15.00
2022-10-02T18:41:48.089Z,15.10
2022-10-02T18:44:27.234Z,15.10
2022-10-02T18:47:23.150Z,15.10
2022-10-02T18:50:04.006Z,15.10
2022-10-02T18:53:07.679Z,14.90
2022-10-02T18:55:52.064Z,14.70
2022-10-02T18:58:56.538Z,14.70
2022-10-02T19:01:38.830Z,14.70
2022-10-02T19:04:20.080Z,14.70
2022-10-02T19:07:19.484Z,14.70
2022-10-02T19:09:47.379Z,14.70
2022-10-02T19:12:16.982Z,14.70
2022-10-02T19:14:48.012Z,14.70
2022-10-02T19:17:26.281Z,14.70
2022-10-02T19:19:54.336Z,14.70
2022-10-02T19:22:36.225Z,14.70
2022-10-02T19:25:16.143Z,14.80
2022-10-02T19:27:56.310Z,14.70
2022-10-02T19:30:29.910Z,14.70
2022-10-02T19:33:01.663Z,14.70
2022-10-02T19:35:40.463Z,14.70
2022-10-02T19:38:25.715Z,14.70
2022-10-02T19:40:55.693Z,14.60
2022-10-02T19:43:32.481Z,14.60
2022-10-02T19:46:05.341Z,14.50
2022-10-02T19:48:33.193Z,14.50
2022-10-02T19:51:07.309Z,14.50
2022-10-02T19:53:42.843Z,14.50
2022-10-02T19:56:14.876Z,14.50
2022-10-02T19:58:48.724Z,13.60
2022-10-02T20:01:27.575Z,13.30
2022-10-02T20:04:00.317Z,12.80
2022-10-02T20:06:32.046Z,12.80
2022-10-02T20:09:25.105Z,12.80
2022-10-02T20:11:59.438Z,12.80
2022-10-02T20:14:32.404Z,12.80
2022-10-02T20:17:12.739Z,12.70
2022-10-02T20:20:02.781Z,12.70
2022-10-02T20:23:01.536Z,12.70
2022-10-02T20:25:56.378Z,12.70
2022-10-02T20:28:33.747Z,12.70
2022-10-02T20:31:06.163Z,12.70
2022-10-02T20:33:39.040Z,12.70
2022-10-02T20:36:14.216Z,12.80
2022-10-02T20:38:56.039Z,12.70
2022-10-02T20:41:31.943Z,12.80
2022-10-02T20:44:04.531Z,12.80
2022-10-02T20:46:40.688Z,12.80
2022-10-02T20:49:44.660Z,12.80
2022-10-02T20:52:40.333Z,12.80
2022-10-02T20:55:31.129Z,12.80
2022-10-02T20:58:13.316Z,12.80
